📊 Raw Sensor Data
Showing records 44726 to 44750 of 85,041 total
| ID | Distance (ft) | Battery V | Battery A | Int Temp (°F) | Int Humid (%) | Ext Temp (°F) | Solar V | RSSI | SNR | Time Stamp |
|---|---|---|---|---|---|---|---|---|---|---|
| 40328 | 16.1 | 3.89 | -5 | 56 | 49 | 56 | 0.00 | -67 | 8 | 05/11/2025 08:30 PM |
| 40327 | 16.1 | 3.95 | -9 | 58 | 51 | 57 | 3.20 | -69 | 8 | 05/11/2025 08:15 PM |
| 40326 | 16.1 | 3.96 | -5 | 61 | 50 | 58 | 4.50 | -68 | 8 | 05/11/2025 08:00 PM |
| 40325 | 16.2 | 3.99 | 0 | 65 | 49 | 60 | 4.50 | -69 | 8 | 05/11/2025 07:45 PM |
| 40324 | -- | 4.00 | 8 | 67 | 49 | 62 | 4.50 | -69 | 9 | 05/11/2025 07:30 PM |
| 40323 | -- | 4.01 | -5 | 68 | 49 | 63 | 4.50 | -69 | 8 | 05/11/2025 07:15 PM |
| 40322 | -- | 3.94 | 14 | 70 | 49 | 65 | 4.50 | -68 | 8 | 05/11/2025 07:00 PM |
| 40321 | -- | 3.98 | 30 | 72 | 48 | 64 | 4.50 | -70 | 8 | 05/11/2025 06:45 PM |
| 40320 | -- | 3.95 | 0 | 74 | 47 | 65 | 5.10 | -68 | 9 | 05/11/2025 06:30 PM |
| 40319 | -- | 3.95 | 0 | 75 | 46 | 67 | 5.10 | -68 | 9 | 05/11/2025 06:15 PM |
| 40318 | -- | 3.95 | 0 | 75 | 46 | 66 | 5.10 | -68 | 8 | 05/11/2025 06:00 PM |
| 40317 | -- | 4.09 | 0 | 77 | 45 | 68 | 5.10 | -69 | 8 | 05/11/2025 05:45 PM |
| 40316 | -- | 3.95 | 0 | 77 | 46 | 70 | 5.10 | -68 | 9 | 05/11/2025 05:31 PM |
| 40315 | 16.3 | 3.95 | 0 | 75 | 48 | 68 | 5.10 | -69 | 8 | 05/11/2025 05:15 PM |
| 40314 | -- | 4.11 | 0 | 79 | 46 | 70 | 5.10 | -69 | 9 | 05/11/2025 05:00 PM |
| 40313 | 16.3 | 3.95 | 0 | 81 | 45 | 74 | 5.10 | -69 | 8 | 05/11/2025 04:30 PM |
| 40312 | 16.3 | 3.95 | 0 | 82 | 44 | 75 | 5.10 | -70 | 8 | 05/11/2025 04:15 PM |
| 40311 | 16.3 | 3.95 | 0 | 82 | 44 | 74 | 5.10 | -69 | 7 | 05/11/2025 04:00 PM |
| 40310 | 16.4 | 3.95 | 0 | 83 | 43 | 75 | 5.10 | -70 | 8 | 05/11/2025 03:45 PM |
| 40309 | 16.3 | 3.95 | 0 | 83 | 42 | 77 | 5.10 | -70 | 8 | 05/11/2025 03:30 PM |
| 40308 | 16.3 | 4.05 | 0 | 82 | 42 | 77 | 5.10 | -70 | 8 | 05/11/2025 03:15 PM |
| 40307 | 16.4 | 3.95 | 0 | 81 | 42 | 75 | 5.10 | -68 | 8 | 05/11/2025 03:00 PM |
| 40306 | 16.3 | 3.95 | 0 | 80 | 42 | 74 | 5.10 | -70 | 8 | 05/11/2025 02:45 PM |
| 40305 | 16.4 | 3.95 | 0 | 80 | 41 | 74 | 5.10 | -70 | 8 | 05/11/2025 02:30 PM |
| 40304 | 16.4 | 3.95 | 0 | 80 | 41 | 74 | 5.10 | -70 | 8 | 05/11/2025 02:15 PM |